Time;durP1;ratioP1;P1;durP2;ratioP2;P2;SDS_P1;SDS_P2;PMS_P1;PMS_P2;Temp;Humidity;BMP_temperature;BMP_pressure;BME280_temperature;BME280_humidity;BME280_pressure;Samples;Min_cycle;Max_cycle;Signal;HPM_P1;HPM_P2
2021/07/07 00:00:27;;;;;;;3.07;1.60;;;18.00;99.90;;;;;;5025670;28;20199;-66
2021/07/07 00:02:53;;;;;;;1.83;1.70;;;17.80;99.90;;;;;;5025778;28;20699;-66
2021/07/07 00:05:19;;;;;;;1.70;1.60;;;17.80;99.90;;;;;;5005129;28;20442;-66
2021/07/07 00:07:46;;;;;;;2.23;2.03;;;17.60;99.90;;;;;;5025768;28;20209;-63
2021/07/07 00:10:15;;;;;;;2.93;1.60;;;17.60;99.90;;;;;;5026882;28;20881;-64
2021/07/07 00:12:41;;;;;;;2.13;1.60;;;17.50;99.90;;;;;;5007489;28;20497;-62
2021/07/07 00:15:13;;;;;;;3.30;1.90;;;17.80;99.90;;;;;;5027559;28;20491;-61
2021/07/07 00:17:45;;;;;;;3.57;2.00;;;17.80;99.90;;;;;;4991954;28;20451;-62
2021/07/07 00:20:12;;;;;;;1.80;1.70;;;17.80;99.90;;;;;;5025300;28;20542;-62
2021/07/07 00:22:38;;;;;;;1.77;1.67;;;17.70;99.90;;;;;;4991570;28;20537;-61
2021/07/07 00:25:06;;;;;;;1.80;1.67;;;17.70;99.90;;;;;;5024133;28;20521;-62
2021/07/07 00:27:32;;;;;;;1.77;1.67;;;17.80;99.90;;;;;;5025657;28;20574;-61
2021/07/07 00:29:59;;;;;;;2.30;2.10;;;17.90;99.90;;;;;;5024095;28;20534;-64
2021/07/07 00:32:25;;;;;;;3.37;1.67;;;17.70;99.90;;;;;;5022818;28;20555;-64
2021/07/07 00:34:50;;;;;;;2.50;1.47;;;18.00;99.90;;;;;;5025330;28;20514;-64
2021/07/07 00:37:19;;;;;;;3.10;1.90;;;18.00;99.90;;;;;;5024172;28;20961;-65
2021/07/07 00:39:47;;;;;;;2.37;2.00;;;17.90;99.90;;;;;;5023665;28;20547;-64
2021/07/07 00:42:13;;;;;;;3.13;2.13;;;17.90;99.90;;;;;;5026798;28;20933;-65
2021/07/07 00:44:41;;;;;;;2.67;1.97;;;18.10;99.90;;;;;;5025435;28;20509;-65
2021/07/07 00:47:07;;;;;;;3.33;2.10;;;18.10;99.90;;;;;;5006576;28;20908;-65
2021/07/07 00:49:36;;;;;;;3.57;1.93;;;18.00;99.90;;;;;;5024771;28;20519;-65
2021/07/07 00:52:03;;;;;;;1.90;1.70;;;18.10;99.90;;;;;;5025035;28;20329;-65
2021/07/07 00:54:31;;;;;;;3.10;1.73;;;18.10;99.90;;;;;;5022833;28;20469;-64
2021/07/07 00:57:00;;;;;;;1.83;1.60;;;18.00;99.90;;;;;;5025522;28;20515;-65
2021/07/07 00:59:26;;;;;;;3.90;1.93;;;17.70;99.90;;;;;;5024805;28;20542;-64
2021/07/07 01:01:54;;;;;;;2.43;1.60;;;17.70;99.90;;;;;;5025735;28;20466;-65
2021/07/07 01:04:20;;;;;;;2.10;1.50;;;17.90;99.90;;;;;;5024519;28;20443;-65
2021/07/07 01:06:46;;;;;;;2.57;2.10;;;17.60;99.90;;;;;;5023904;28;20475;-64
2021/07/07 01:09:11;;;;;;;1.70;1.60;;;17.60;99.90;;;;;;5008597;28;20196;-65
2021/07/07 01:11:40;;;;;;;2.97;1.90;;;17.80;99.90;;;;;;5025046;28;20295;-65
2021/07/07 01:14:06;;;;;;;1.90;1.70;;;17.90;99.90;;;;;;5007392;28;20254;-62
2021/07/07 01:16:31;;;;;;;2.57;1.67;;;17.80;99.90;;;;;;5024351;28;21045;-60
2021/07/07 01:18:58;;;;;;;1.80;1.70;;;17.90;99.90;;;;;;5020367;28;20197;-62
2021/07/07 01:21:27;;;;;;;3.70;2.00;;;17.80;99.90;;;;;;5025483;28;21042;-61
2021/07/07 01:23:55;;;;;;;3.10;1.67;;;17.80;99.90;;;;;;5022473;28;20541;-61
2021/07/07 01:26:21;;;;;;;3.27;2.17;;;17.80;99.90;;;;;;5024311;28;20466;-61
2021/07/07 01:28:47;;;;;;;2.07;1.87;;;17.70;99.90;;;;;;5024864;28;20423;-62
2021/07/07 01:31:12;;;;;;;3.90;2.03;;;17.60;99.90;;;;;;5024618;28;20199;-62
2021/07/07 01:33:38;;;;;;;2.53;1.63;;;17.80;99.90;;;;;;5021397;28;20268;-62
2021/07/07 01:36:04;;;;;;;2.00;1.80;;;17.90;99.90;;;;;;5023959;28;20193;-62
2021/07/07 01:38:35;;;;;;;1.77;1.63;;;17.90;99.90;;;;;;5022594;28;20225;-63
2021/07/07 01:41:02;;;;;;;2.40;2.00;;;17.90;99.90;;;;;;5024593;28;20192;-62
2021/07/07 01:43:27;;;;;;;2.70;1.83;;;17.90;99.90;;;;;;5023362;28;20550;-61
2021/07/07 01:45:53;;;;;;;2.97;1.87;;;17.70;99.90;;;;;;5007977;28;20562;-62
2021/07/07 01:48:19;;;;;;;3.23;1.83;;;17.70;99.90;;;;;;5023540;28;20798;-62
2021/07/07 01:50:44;;;;;;;4.20;1.83;;;17.70;99.90;;;;;;5023711;28;20200;-62
2021/07/07 01:53:11;;;;;;;3.97;2.03;;;17.50;99.90;;;;;;5022731;28;20236;-62
2021/07/07 01:55:36;;;;;;;2.43;2.23;;;17.60;99.90;;;;;;5025154;28;20188;-62
2021/07/07 01:58:03;;;;;;;4.40;3.03;;;17.50;99.90;;;;;;5024905;28;20423;-62
2021/07/07 02:00:33;;;;;;;4.73;2.80;;;17.40;99.90;;;;;;5001532;28;20275;-62
2021/07/07 02:02:59;;;;;;;3.07;2.57;;;17.50;99.90;;;;;;5024179;28;20450;-61
2021/07/07 02:05:34;;;;;;;4.97;2.40;;;17.60;99.90;;;;;;5023790;28;20446;-61
2021/07/07 02:08:01;;;;;;;2.40;2.00;;;17.40;99.90;;;;;;5023343;28;20469;-61
2021/07/07 02:10:27;;;;;;;5.20;2.83;;;17.50;99.90;;;;;;5025505;28;20808;-62
2021/07/07 02:12:52;;;;;;;3.43;2.50;;;17.40;99.90;;;;;;5023076;28;20483;-62
2021/07/07 02:15:21;;;;;;;2.87;2.20;;;17.40;99.90;;;;;;5025338;28;20246;-61
2021/07/07 02:17:51;;;;;;;2.57;2.20;;;17.70;99.90;;;;;;5008178;28;20531;-61
2021/07/07 02:20:20;;;;;;;2.17;1.70;;;17.70;99.90;;;;;;5008897;28;20443;-61
2021/07/07 02:22:47;;;;;;;2.30;2.10;;;17.70;99.90;;;;;;5027771;28;20438;-62
2021/07/07 02:25:18;;;;;;;2.50;1.70;;;17.90;99.90;;;;;;5024931;28;20892;-63
2021/07/07 02:27:48;;;;;;;3.37;2.00;;;17.70;99.90;;;;;;5025645;28;20467;-62
2021/07/07 02:30:17;;;;;;;2.27;1.80;;;17.60;99.90;;;;;;5028011;28;20807;-62
2021/07/07 02:32:44;;;;;;;5.50;2.47;;;17.60;99.90;;;;;;5027412;28;20826;-62
2021/07/07 02:35:19;;;;;;;5.83;2.27;;;17.30;99.90;;;;;;5026020;28;20538;-62
2021/07/07 02:37:50;;;;;;;7.90;2.40;;;17.40;99.90;;;;;;5027821;28;20462;-61
2021/07/07 02:40:32;;;;;;;4.23;2.13;;;17.50;99.90;;;;;;5026645;28;20489;-62
2021/07/07 02:42:58;;;;;;;2.43;1.90;;;17.50;99.90;;;;;;5027435;28;20463;-62
2021/07/07 02:45:25;;;;;;;5.40;2.53;;;17.60;99.90;;;;;;5026533;28;20453;-62
2021/07/07 02:47:52;;;;;;;6.03;2.00;;;17.60;99.90;;;;;;5026243;28;20536;-61
2021/07/07 02:50:19;;;;;;;3.80;2.10;;;17.70;99.90;;;;;;5027675;28;20423;-62
2021/07/07 02:52:47;;;;;;;5.33;2.50;;;17.50;99.90;;;;;;5024462;28;20509;-61
2021/07/07 02:55:17;;;;;;;6.80;2.13;;;17.60;99.90;;;;;;5026123;28;20524;-61
2021/07/07 02:58:02;;;;;;;3.70;2.17;;;17.60;99.90;;;;;;5027137;28;20444;-61
2021/07/07 03:00:32;;;;;;;3.80;2.10;;;17.60;99.90;;;;;;5027231;28;20450;-60
2021/07/07 03:03:03;;;;;;;2.93;2.20;;;17.50;99.90;;;;;;5024266;28;20548;-61
2021/07/07 03:05:35;;;;;;;2.70;2.10;;;17.50;99.90;;;;;;5026062;28;20411;-61
2021/07/07 03:08:00;;;;;;;2.70;2.50;;;17.50;99.90;;;;;;5025034;28;20478;-61
2021/07/07 03:10:26;;;;;;;4.43;2.33;;;17.30;99.90;;;;;;5025910;28;20439;-61
2021/07/07 03:12:52;;;;;;;2.50;2.30;;;17.30;99.90;;;;;;5010622;28;20757;-62
2021/07/07 03:15:18;;;;;;;5.30;2.67;;;17.40;99.90;;;;;;5025443;28;20420;-60
2021/07/07 03:17:44;;;;;;;2.63;2.43;;;17.50;99.90;;;;;;5026927;28;20501;-61
2021/07/07 03:20:10;;;;;;;2.40;2.20;;;17.30;99.90;;;;;;5025809;28;20180;-61
2021/07/07 03:22:37;;;;;;;3.10;2.57;;;17.30;99.90;;;;;;5004718;28;20293;-61
2021/07/07 03:25:04;;;;;;;2.67;2.03;;;17.30;99.90;;;;;;5020445;28;20572;-62
2021/07/07 03:27:32;;;;;;;3.47;2.60;;;17.40;99.90;;;;;;5023758;28;20552;-63
2021/07/07 03:29:58;;;;;;;3.10;2.50;;;17.20;99.90;;;;;;5024609;28;20442;-63
2021/07/07 03:32:24;;;;;;;4.50;2.77;;;17.10;99.90;;;;;;5023847;28;21137;-64
2021/07/07 03:34:49;;;;;;;5.10;2.40;;;17.20;99.90;;;;;;5023767;28;20184;-64
2021/07/07 03:37:15;;;;;;;6.03;2.60;;;17.30;99.90;;;;;;5025575;28;20597;-63
2021/07/07 03:39:41;;;;;;;5.10;2.67;;;17.30;99.90;;;;;;5024252;28;20211;-64
2021/07/07 03:42:09;;;;;;;2.90;2.20;;;17.20;99.90;;;;;;5023792;28;20224;-64
2021/07/07 03:44:35;;;;;;;2.83;2.13;;;17.20;99.90;;;;;;5021675;28;20819;-63
2021/07/07 03:47:01;;;;;;;8.20;2.57;;;17.40;99.90;;;;;;5023333;28;20525;-62
2021/07/07 03:49:27;;;;;;;5.70;2.47;;;17.20;99.90;;;;;;5024422;28;20322;-63
2021/07/07 03:51:55;;;;;;;2.50;2.20;;;17.00;99.90;;;;;;5024405;28;20281;-63
2021/07/07 03:54:23;;;;;;;3.47;2.73;;;17.30;99.90;;;;;;5023437;28;20467;-63
2021/07/07 03:56:55;;;;;;;5.17;2.33;;;17.30;99.90;;;;;;5024477;28;20455;-63
2021/07/07 03:59:21;;;;;;;4.90;2.27;;;17.20;99.90;;;;;;5023576;28;20494;-64
2021/07/07 04:01:47;;;;;;;5.07;2.90;;;17.00;99.90;;;;;;5023038;28;20505;-63
2021/07/07 04:04:13;;;;;;;3.50;2.47;;;16.90;99.90;;;;;;5025919;28;20435;-63
2021/07/07 04:06:39;;;;;;;2.60;2.40;;;17.00;99.90;;;;;;5025108;28;20197;-63
2021/07/07 04:09:05;;;;;;;6.80;2.30;;;17.00;99.90;;;;;;5006157;28;20443;-64
2021/07/07 04:11:31;;;;;;;7.83;5.40;;;17.10;99.90;;;;;;5003839;28;20462;-63
2021/07/07 04:14:03;;;;;;;2.50;2.30;;;17.10;99.90;;;;;;5024155;28;20439;-63
2021/07/07 04:16:28;;;;;;;3.07;2.10;;;17.20;99.90;;;;;;5023350;28;20200;-62
2021/07/07 04:18:54;;;;;;;4.50;2.77;;;17.20;99.90;;;;;;5023215;28;20954;-62
2021/07/07 04:21:20;;;;;;;2.87;2.57;;;17.00;99.90;;;;;;5024461;28;20710;-63
2021/07/07 04:23:45;;;;;;;5.50;2.30;;;17.00;99.90;;;;;;5023915;28;20207;-63
2021/07/07 04:26:11;;;;;;;2.57;2.37;;;17.10;99.90;;;;;;5024802;28;20576;-63
2021/07/07 04:28:37;;;;;;;4.60;2.80;;;17.10;99.90;;;;;;5022155;28;20250;-62
2021/07/07 04:31:02;;;;;;;4.70;2.27;;;17.20;99.90;;;;;;5023577;28;20172;-62
2021/07/07 04:33:28;;;;;;;4.63;2.60;;;17.20;99.90;;;;;;5023270;28;20192;-62
2021/07/07 04:35:54;;;;;;;4.00;2.43;;;17.10;99.90;;;;;;5005951;28;20200;-63
2021/07/07 04:38:25;;;;;;;3.90;2.50;;;16.90;99.90;;;;;;5022404;28;20189;-63
2021/07/07 04:40:51;;;;;;;2.53;2.33;;;17.00;99.90;;;;;;5023408;28;20196;-62
2021/07/07 04:43:20;;;;;;;2.90;2.30;;;17.20;99.90;;;;;;5024718;28;20458;-64
2021/07/07 04:45:48;;;;;;;3.60;2.33;;;17.20;99.90;;;;;;5024051;28;20184;-64
2021/07/07 04:48:14;;;;;;;4.77;2.60;;;17.20;99.90;;;;;;5023093;28;20458;-62
2021/07/07 04:50:42;;;;;;;7.60;2.40;;;17.30;99.90;;;;;;5024753;28;20455;-63
2021/07/07 04:53:08;;;;;;;3.67;2.90;;;17.40;99.90;;;;;;5023245;28;20586;-64
2021/07/07 04:55:34;;;;;;;2.50;2.30;;;17.40;99.90;;;;;;5024005;28;20901;-63
2021/07/07 04:57:59;;;;;;;5.73;2.40;;;17.30;99.90;;;;;;5024646;28;20679;-63
2021/07/07 05:00:25;;;;;;;3.67;2.67;;;17.20;99.90;;;;;;5023857;28;20671;-63
2021/07/07 05:02:51;;;;;;;3.17;2.53;;;17.20;99.90;;;;;;5023683;28;20208;-63
2021/07/07 05:05:22;;;;;;;3.93;2.87;;;17.20;99.90;;;;;;5024339;28;20181;-63
2021/07/07 05:07:50;;;;;;;3.40;2.70;;;17.30;99.90;;;;;;5025520;28;20474;-63
2021/07/07 05:10:17;;;;;;;3.27;2.50;;;17.30;99.90;;;;;;5022073;28;20508;-62
2021/07/07 05:12:43;;;;;;;5.03;3.23;;;17.40;99.90;;;;;;5022943;28;20740;-62
2021/07/07 05:15:11;;;;;;;3.63;2.40;;;17.40;99.90;;;;;;5004223;28;20446;-63
2021/07/07 05:17:40;;;;;;;2.97;2.60;;;17.30;99.90;;;;;;5025635;28;21437;-63
2021/07/07 05:20:07;;;;;;;3.50;2.77;;;17.20;99.90;;;;;;5021748;28;20447;-65
2021/07/07 05:22:32;;;;;;;2.93;2.63;;;17.30;99.90;;;;;;5022321;28;20863;-64
2021/07/07 05:24:58;;;;;;;2.70;2.50;;;17.20;99.90;;;;;;5007950;28;20439;-63
2021/07/07 05:27:27;;;;;;;4.23;2.70;;;17.10;99.90;;;;;;5021780;28;20236;-64
2021/07/07 05:29:57;;;;;;;4.97;3.33;;;17.10;99.90;;;;;;5024085;28;20192;-63
2021/07/07 05:32:26;;;;;;;4.60;2.53;;;17.20;99.90;;;;;;5024644;28;20487;-63
2021/07/07 05:34:53;;;;;;;4.10;2.93;;;17.30;99.90;;;;;;5022662;28;20822;-62
2021/07/07 05:37:22;;;;;;;6.80;2.80;;;17.10;99.90;;;;;;5022476;28;20454;-63
2021/07/07 05:39:52;;;;;;;4.97;2.90;;;17.00;99.90;;;;;;5021866;28;20992;-65
2021/07/07 05:42:20;;;;;;;4.67;2.80;;;17.10;99.90;;;;;;5020840;28;20836;-63
2021/07/07 05:44:47;;;;;;;4.20;3.50;;;17.20;99.90;;;;;;5023775;28;20876;-63
2021/07/07 05:47:13;;;;;;;4.43;2.67;;;17.20;99.90;;;;;;5022430;28;20474;-64
2021/07/07 05:49:38;;;;;;;6.03;3.17;;;17.20;99.90;;;;;;5025190;28;20965;-64
2021/07/07 05:52:05;;;;;;;9.50;5.27;;;17.10;99.90;;;;;;5007259;28;20546;-64
2021/07/07 05:54:33;;;;;;;4.57;4.17;;;17.10;99.90;;;;;;5025044;28;20557;-64
2021/07/07 05:56:59;;;;;;;4.33;3.20;;;17.30;99.90;;;;;;5027122;28;20443;-64
2021/07/07 05:59:25;;;;;;;5.07;3.37;;;17.60;99.90;;;;;;5026613;28;20441;-63
2021/07/07 06:01:51;;;;;;;3.60;2.90;;;17.70;99.90;;;;;;5006846;28;20593;-64
2021/07/07 06:04:16;;;;;;;5.80;2.70;;;17.80;99.90;;;;;;5025854;28;20191;-64
2021/07/07 06:06:45;;;;;;;7.97;2.93;;;18.00;99.90;;;;;;5025580;28;20216;-64
2021/07/07 06:09:11;;;;;;;5.30;2.63;;;17.90;99.90;;;;;;5026053;28;20249;-63
2021/07/07 06:11:36;;;;;;;7.07;3.10;;;18.10;99.90;;;;;;5025109;28;20467;-63
2021/07/07 06:14:05;;;;;;;4.17;3.20;;;18.10;99.90;;;;;;5026456;28;20493;-64
2021/07/07 06:16:31;;;;;;;2.90;2.53;;;17.80;99.90;;;;;;5025183;28;20181;-64
2021/07/07 06:18:57;;;;;;;7.00;2.97;;;17.80;99.90;;;;;;5007451;28;20482;-63
2021/07/07 06:21:23;;;;;;;3.37;2.87;;;17.80;99.90;;;;;;5021013;28;20891;-63
2021/07/07 06:23:48;;;;;;;4.27;3.20;;;17.70;99.90;;;;;;5023304;28;20667;-64
2021/07/07 06:26:14;;;;;;;5.23;3.50;;;17.70;99.90;;;;;;5011244;28;20231;-64
2021/07/07 06:28:39;;;;;;;5.97;3.40;;;17.90;99.90;;;;;;5025418;28;20200;-64
2021/07/07 06:31:06;;;;;;;4.13;3.00;;;18.10;99.90;;;;;;5025052;28;20192;-64
2021/07/07 06:33:31;;;;;;;4.30;2.90;;;18.00;99.90;;;;;;5024608;28;20189;-64
2021/07/07 06:35:57;;;;;;;2.93;2.40;;;18.10;99.90;;;;;;5026194;28;20496;-63
2021/07/07 06:38:23;;;;;;;4.30;2.70;;;18.30;99.90;;;;;;5024795;28;20205;-63
2021/07/07 06:40:49;;;;;;;4.20;3.07;;;18.40;99.90;;;;;;5024443;28;20200;-63
2021/07/07 06:43:19;;;;;;;5.17;3.30;;;18.50;99.90;;;;;;5005518;28;20516;-63
2021/07/07 06:45:45;;;;;;;4.93;3.17;;;18.30;99.90;;;;;;5002523;28;20993;-61
2021/07/07 06:48:11;;;;;;;5.50;3.63;;;18.20;99.90;;;;;;5024078;28;20906;-65
2021/07/07 06:50:38;;;;;;;6.07;3.47;;;18.00;99.90;;;;;;5026089;28;21073;-64
2021/07/07 06:53:04;;;;;;;4.50;3.60;;;17.90;99.90;;;;;;5022842;28;20455;-63
2021/07/07 06:55:31;;;;;;;3.60;3.30;;;17.90;99.90;;;;;;5023720;28;20453;-64
2021/07/07 06:57:57;;;;;;;2.93;2.63;;;18.00;99.90;;;;;;5006636;28;20450;-64
2021/07/07 07:00:23;;;;;;;8.10;3.40;;;18.10;99.90;;;;;;5008479;28;20934;-65
2021/07/07 07:02:50;;;;;;;3.37;2.70;;;18.20;99.90;;;;;;5027725;28;20454;-65
2021/07/07 07:05:18;;;;;;;5.67;3.00;;;18.20;99.90;;;;;;4989588;28;20470;-65
2021/07/07 07:07:45;;;;;;;4.50;3.40;;;18.30;99.90;;;;;;5025306;28;20467;-67
2021/07/07 07:10:13;;;;;;;4.70;3.23;;;18.30;99.90;;;;;;5025261;28;20435;-66
2021/07/07 07:12:40;;;;;;;7.10;3.17;;;18.40;99.90;;;;;;5024528;28;20533;-66
2021/07/07 07:15:09;;;;;;;3.70;2.70;;;18.50;99.90;;;;;;5025402;28;20462;-67
2021/07/07 07:17:35;;;;;;;3.50;3.03;;;18.50;99.90;;;;;;5025914;28;20439;-65
2021/07/07 07:20:04;;;;;;;4.43;2.83;;;18.40;99.90;;;;;;5006552;28;20438;-64
2021/07/07 07:22:30;;;;;;;4.20;3.20;;;18.40;99.90;;;;;;5025922;28;20695;-62
2021/07/07 07:24:56;;;;;;;3.73;3.17;;;18.20;99.90;;;;;;5024749;28;20415;-63
2021/07/07 07:27:22;;;;;;;6.27;3.40;;;18.10;99.90;;;;;;5002666;28;20232;-63
2021/07/07 07:29:48;;;;;;;5.83;3.07;;;18.20;99.90;;;;;;5007173;28;20806;-63
2021/07/07 07:32:14;;;;;;;6.60;3.27;;;18.40;99.90;;;;;;5025073;28;20458;-63
2021/07/07 07:34:40;;;;;;;5.13;3.60;;;18.00;99.90;;;;;;5007085;28;20189;-62
2021/07/07 07:37:06;;;;;;;3.93;2.87;;;18.00;99.90;;;;;;5023925;28;20546;-61
2021/07/07 07:39:50;;;;;;;5.60;3.30;;;18.20;99.90;;;;;;5006901;28;20207;-62
2021/07/07 07:42:17;;;;;;;5.90;2.90;;;18.30;99.90;;;;;;5004140;28;20498;-61
2021/07/07 07:44:43;;;;;;;5.73;3.37;;;18.50;99.90;;;;;;5022438;28;20431;-63
2021/07/07 07:47:11;;;;;;;5.97;3.50;;;18.30;99.90;;;;;;5022449;28;20518;-62
2021/07/07 07:49:38;;;;;;;4.10;3.10;;;18.30;99.90;;;;;;5019952;28;20521;-62
2021/07/07 07:52:04;;;;;;;4.73;3.00;;;18.40;99.90;;;;;;5024634;28;21005;-60
2021/07/07 07:54:32;;;;;;;4.47;3.13;;;18.40;99.90;;;;;;5022426;28;20956;-62
2021/07/07 07:56:59;;;;;;;4.30;3.07;;;18.50;99.90;;;;;;5024210;28;20441;-60
2021/07/07 07:59:24;;;;;;;4.50;3.40;;;18.80;99.90;;;;;;5025407;28;20432;-60
2021/07/07 08:01:50;;;;;;;2.90;2.37;;;18.90;99.90;;;;;;5021308;28;20459;-61
2021/07/07 08:04:17;;;;;;;3.70;3.30;;;18.90;99.90;;;;;;5007346;28;20197;-62
2021/07/07 08:06:43;;;;;;;6.87;2.67;;;18.90;99.90;;;;;;5017300;28;20251;-61
2021/07/07 08:09:09;;;;;;;3.03;2.73;;;18.80;99.90;;;;;;5001389;28;20487;-61
2021/07/07 08:11:35;;;;;;;3.67;2.43;;;19.00;99.90;;;;;;5021991;28;20543;-61
2021/07/07 08:14:03;;;;;;;2.50;2.30;;;18.90;99.90;;;;;;5022792;28;20203;-61
2021/07/07 08:16:29;;;;;;;3.00;2.67;;;19.10;99.90;;;;;;5019897;28;20618;-61
2021/07/07 08:18:56;;;;;;;5.50;2.57;;;19.10;99.90;;;;;;5004908;28;20437;-61
2021/07/07 08:21:22;;;;;;;4.93;2.83;;;19.10;99.90;;;;;;5001347;28;20470;-62
2021/07/07 08:23:48;;;;;;;4.70;4.10;;;19.10;99.90;;;;;;5017399;28;20442;-61
2021/07/07 08:26:14;;;;;;;4.17;2.83;;;19.10;99.90;;;;;;5019683;28;21053;-61
2021/07/07 08:28:40;;;;;;;2.93;1.93;;;19.10;99.90;;;;;;5020760;28;20542;-62
2021/07/07 08:31:07;;;;;;;3.03;2.13;;;19.20;99.90;;;;;;5003974;28;20884;-61
2021/07/07 08:33:32;;;;;;;3.17;2.87;;;19.20;99.90;;;;;;5020653;28;20218;-61
2021/07/07 08:35:58;;;;;;;4.17;2.83;;;19.20;99.90;;;;;;5017826;28;20821;-61
2021/07/07 08:38:24;;;;;;;5.43;2.80;;;19.20;99.90;;;;;;5017507;28;20560;-61
2021/07/07 08:40:50;;;;;;;3.50;2.20;;;19.30;99.90;;;;;;5019442;28;20266;-61
2021/07/07 08:43:15;;;;;;;5.13;2.00;;;19.30;99.90;;;;;;5000968;28;20253;-60
2021/07/07 08:45:41;;;;;;;2.93;2.03;;;19.40;99.90;;;;;;5021619;28;20200;-61
2021/07/07 08:48:07;;;;;;;4.13;2.10;;;19.50;99.90;;;;;;5009200;28;20228;-61
2021/07/07 08:50:34;;;;;;;2.60;2.00;;;19.50;99.90;;;;;;5015692;28;20276;-61
2021/07/07 08:53:03;;;;;;;2.97;2.67;;;19.60;99.90;;;;;;5020295;28;20303;-61
2021/07/07 08:55:32;;;;;;;1.83;1.67;;;19.80;99.90;;;;;;5019264;28;20554;-61
2021/07/07 08:57:59;;;;;;;2.10;1.90;;;19.80;99.90;;;;;;5017219;28;20451;-61
2021/07/07 09:00:34;;;;;;;1.93;1.73;;;19.80;99.90;;;;;;5020006;28;20445;-61
2021/07/07 09:03:10;;;;;;;6.23;2.00;;;19.90;99.90;;;;;;5019216;28;20450;-61
2021/07/07 09:05:55;;;;;;;2.60;1.83;;;19.90;99.90;;;;;;5020049;28;20462;-61
2021/07/07 09:08:25;;;;;;;2.03;1.80;;;20.00;99.90;;;;;;5017098;28;20995;-60
2021/07/07 09:10:51;;;;;;;2.37;1.90;;;20.00;99.90;;;;;;5020077;28;20423;-61
2021/07/07 09:13:18;;;;;;;3.00;2.00;;;20.10;99.90;;;;;;5021366;28;20457;-61
2021/07/07 09:15:44;;;;;;;2.90;2.23;;;20.00;99.90;;;;;;5017893;28;20196;-61
2021/07/07 09:18:33;;;;;;;3.17;1.80;;;20.00;99.90;;;;;;5020092;28;20464;-62
2021/07/07 09:20:59;;;;;;;2.63;1.90;;;20.20;99.90;;;;;;5019526;28;20499;-62
2021/07/07 09:23:27;;;;;;;2.60;1.80;;;20.20;99.90;;;;;;5020590;28;20454;-62
2021/07/07 09:25:57;;;;;;;4.20;2.00;;;20.30;99.90;;;;;;5024112;28;20809;-62
2021/07/07 09:28:32;;;;;;;5.83;2.37;;;20.40;99.90;;;;;;5024581;28;20509;-62
2021/07/07 09:31:02;;;;;;;2.77;2.03;;;20.40;99.90;;;;;;5024856;28;20448;-61
2021/07/07 09:33:36;;;;;;;4.77;2.23;;;20.40;99.90;;;;;;5020564;28;20426;-62
2021/07/07 09:36:23;;;;;;;2.23;2.03;;;20.50;99.90;;;;;;5015050;28;20419;-61
2021/07/07 09:38:50;;;;;;;3.07;2.00;;;20.50;99.90;;;;;;5019340;28;20441;-62
2021/07/07 09:41:17;;;;;;;3.70;2.03;;;20.60;99.90;;;;;;5023399;28;20508;-61
2021/07/07 09:43:47;;;;;;;2.90;1.90;;;20.70;99.90;;;;;;5024210;28;20427;-62
2021/07/07 09:46:13;;;;;;;2.27;2.07;;;20.90;99.90;;;;;;5024134;28;20538;-62
2021/07/07 09:48:39;;;;;;;3.80;1.90;;;20.90;99.90;;;;;;5022850;28;21212;-62
2021/07/07 09:51:05;;;;;;;2.40;2.20;;;21.00;99.90;;;;;;5020571;28;20334;-61
2021/07/07 09:53:31;;;;;;;6.37;2.97;;;21.10;99.90;;;;;;5005633;28;20738;-62
2021/07/07 09:55:57;;;;;;;4.90;3.00;;;21.10;99.90;;;;;;5024470;28;20437;-61
2021/07/07 09:58:23;;;;;;;2.40;2.20;;;21.20;99.90;;;;;;5021443;28;20853;-61
2021/07/07 10:00:48;;;;;;;3.97;2.40;;;21.40;99.90;;;;;;5024113;28;20450;-66
2021/07/07 10:03:15;;;;;;;2.80;2.27;;;21.60;99.90;;;;;;5024601;28;20481;-60
2021/07/07 10:05:41;;;;;;;5.13;2.60;;;21.70;99.90;;;;;;5023662;28;20215;-62
2021/07/07 10:08:08;;;;;;;2.17;2.00;;;21.80;99.90;;;;;;5022176;28;20554;-62
2021/07/07 10:10:36;;;;;;;2.93;2.40;;;21.90;99.90;;;;;;5021736;28;20442;-62
2021/07/07 10:13:05;;;;;;;2.83;2.10;;;21.90;99.90;;;;;;5005973;28;20459;-63
2021/07/07 10:15:31;;;;;;;3.50;2.77;;;21.90;99.90;;;;;;5004836;28;20557;-65
2021/07/07 10:17:57;;;;;;;2.00;1.80;;;22.00;99.90;;;;;;5024108;28;20453;-66
2021/07/07 10:20:22;;;;;;;3.70;2.07;;;22.00;99.90;;;;;;5022173;28;20473;-66
2021/07/07 10:22:50;;;;;;;3.33;2.30;;;22.20;99.90;;;;;;5023986;28;20226;-68
2021/07/07 10:25:19;;;;;;;3.43;2.37;;;22.30;99.90;;;;;;5024418;28;20671;-67
2021/07/07 10:27:46;;;;;;;4.17;2.20;;;22.50;99.90;;;;;;5005265;28;21352;-67
2021/07/07 10:30:12;;;;;;;3.77;2.20;;;22.70;99.90;;;;;;5008727;28;20427;-67
2021/07/07 10:32:38;;;;;;;2.27;2.07;;;22.90;99.90;;;;;;4991017;28;21225;-67
2021/07/07 10:35:10;;;;;;;6.60;2.53;;;23.00;99.90;;;;;;5003078;28;20864;-64
2021/07/07 10:37:37;;;;;;;4.63;2.23;;;23.10;99.90;;;;;;5024751;28;20427;-65
2021/07/07 10:40:28;;;;;;;3.93;2.77;;;23.20;99.90;;;;;;5023297;28;20443;-62
2021/07/07 10:42:54;;;;;;;4.20;2.07;;;23.20;99.90;;;;;;5021983;28;20466;-63
2021/07/07 10:45:34;;;;;;;4.17;2.40;;;23.40;99.90;;;;;;5024340;28;20419;-62
2021/07/07 10:48:22;;;;;;;4.50;2.67;;;23.50;99.90;;;;;;5023626;28;20212;-60
2021/07/07 10:50:47;;;;;;;5.63;2.30;;;23.30;99.90;;;;;;5023736;28;20423;-64
2021/07/07 10:53:24;;;;;;;5.37;1.87;;;23.00;99.90;;;;;;5023234;28;20470;-62
2021/07/07 10:55:49;;;;;;;2.60;2.40;;;23.00;99.90;;;;;;5024773;28;20183;-62
2021/07/07 10:58:36;;;;;;;3.50;2.53;;;23.00;99.90;;;;;;5022231;28;20807;-61
2021/07/07 11:01:04;;;;;;;3.60;2.17;;;23.10;99.90;;;;;;5019354;28;20439;-66
2021/07/07 11:03:37;;;;;;;8.60;3.40;;;23.20;99.90;;;;;;5003954;28;20443;-66
2021/07/07 11:06:23;;;;;;;3.17;2.80;;;23.40;99.90;;;;;;5018541;28;20454;-67
2021/07/07 11:08:51;;;;;;;18.10;4.33;;;23.70;99.90;;;;;;5021491;28;20453;-66
2021/07/07 11:11:24;;;;;;;7.83;3.03;;;23.90;99.90;;;;;;5021907;28;20446;-66
2021/07/07 11:13:52;;;;;;;8.13;3.10;;;24.20;99.90;;;;;;5004541;28;20992;-65
2021/07/07 11:16:43;;;;;;;5.47;2.77;;;24.50;99.90;;;;;;5002419;28;20470;-65
2021/07/07 11:19:49;;;;;;;10.20;2.60;;;24.90;99.90;;;;;;5005081;28;20997;-64
2021/07/07 11:22:19;;;;;;;47.07;5.30;;;25.30;99.90;;;;;;5022545;28;20888;-64
2021/07/07 11:24:50;;;;;;;8.63;2.70;;;25.60;99.90;;;;;;5000626;28;20478;-65
2021/07/07 11:27:16;;;;;;;15.03;6.97;;;25.90;99.90;;;;;;5022384;28;20958;-66
2021/07/07 11:29:43;;;;;;;3.30;3.00;;;25.90;99.90;;;;;;5006091;28;20955;-67
2021/07/07 11:32:42;;;;;;;8.67;2.77;;;25.60;99.90;;;;;;5021374;28;20725;-66
2021/07/07 11:35:30;;;;;;;4.20;2.33;;;25.40;99.90;;;;;;4987421;28;20454;-65
2021/07/07 11:37:58;;;;;;;11.30;4.27;;;25.50;99.90;;;;;;5021980;28;20427;-65
2021/07/07 11:40:25;;;;;;;6.23;2.40;;;25.30;99.90;;;;;;5022533;28;20524;-65
2021/07/07 11:43:00;;;;;;;4.43;2.63;;;25.00;99.90;;;;;;5021596;28;20450;-66
2021/07/07 11:45:35;;;;;;;3.97;2.90;;;25.10;99.90;;;;;;5023108;28;20435;-64
2021/07/07 11:50:49;;;;;;;19.97;3.70;;;25.50;99.90;;;;;;5022933;28;20446;-65
2021/07/07 11:53:16;;;;;;;8.73;3.00;;;25.60;99.90;;;;;;5023684;28;20462;-66
2021/07/07 11:55:43;;;;;;;8.80;2.43;;;25.60;99.90;;;;;;5008009;28;20508;-65
2021/07/07 11:58:09;;;;;;;7.53;2.90;;;25.60;99.90;;;;;;5022076;28;20458;-65
2021/07/07 12:00:38;;;;;;;32.70;5.73;;;25.80;99.90;;;;;;5025699;28;20430;-63
2021/07/07 12:03:05;;;;;;;6.23;2.27;;;25.90;99.90;;;;;;5003369;28;20459;-66
2021/07/07 12:05:30;;;;;;;8.53;3.30;;;26.40;99.90;;;;;;5022193;28;20943;-67
2021/07/07 12:08:20;;;;;;;6.97;3.60;;;26.80;99.90;;;;;;5004547;28;20466;-66
2021/07/07 12:11:03;;;;;;;43.63;8.00;;;27.60;99.90;;;;;;5002691;28;20185;-66
2021/07/07 12:13:30;;;;;;;11.57;3.43;;;29.10;99.90;;;;;;5023093;28;21037;-67
2021/07/07 12:16:15;;;;;;;12.47;3.93;;;30.50;99.90;;;;;;5002766;28;20435;-67
2021/07/07 12:18:43;;;;;;;4.37;3.10;;;31.50;99.90;;;;;;5005514;28;20455;-66
2021/07/07 12:21:11;;;;;;;3.30;2.10;;;32.10;99.50;;;;;;5023234;28;20518;-66
2021/07/07 12:23:45;;;;;;;5.70;2.40;;;32.50;94.80;;;;;;5000904;28;20977;-66
2021/07/07 12:26:11;;;;;;;3.27;2.43;;;32.30;95.20;;;;;;5020735;28;20418;-66
2021/07/07 12:28:37;;;;;;;4.13;2.40;;;33.20;93.40;;;;;;5023084;28;20776;-66
2021/07/07 12:31:02;;;;;;;3.40;2.40;;;34.80;84.80;;;;;;5002242;28;20188;-65
2021/07/07 12:33:31;;;;;;;8.73;3.87;;;34.30;81.70;;;;;;5019874;28;20434;-64
2021/07/07 12:35:58;;;;;;;4.53;2.20;;;34.60;80.90;;;;;;5020265;28;20188;-66
2021/07/07 12:38:23;;;;;;;4.53;2.50;;;34.00;77.70;;;;;;4998105;28;20518;-64
2021/07/07 12:40:57;;;;;;;7.97;3.23;;;32.30;72.20;;;;;;5017227;28;20999;-64
2021/07/07 12:43:28;;;;;;;53.67;8.30;;;33.00;80.00;;;;;;5021442;28;20219;-64
2021/07/07 12:46:07;;;;;;;52.63;8.83;;;33.50;78.30;;;;;;5022534;28;20414;-64
2021/07/07 12:49:05;;;;;;;2.73;2.10;;;33.70;69.30;;;;;;5019365;28;20512;-65
2021/07/07 12:51:31;;;;;;;5.40;2.60;;;34.50;68.80;;;;;;4986301;28;20436;-64
2021/07/07 12:53:57;;;;;;;3.93;2.23;;;35.50;62.00;;;;;;5020982;28;20446;-65